sensor_id;sensor_type;location;lat;lon;timestamp;temperature;humidity
47590;DHT22;33316;52.298;9.056;2023-07-28T00:02:17;19.10;95.60
47590;DHT22;33316;52.298;9.056;2023-07-28T00:04:44;19.20;95.60
47590;DHT22;33316;52.298;9.056;2023-07-28T00:07:11;19.10;95.60
47590;DHT22;33316;52.298;9.056;2023-07-28T00:09:38;19.10;95.60
47590;DHT22;33316;52.298;9.056;2023-07-28T00:12:05;19.10;95.60
47590;DHT22;33316;52.298;9.056;2023-07-28T00:14:33;19.10;95.60
47590;DHT22;33316;52.298;9.056;2023-07-28T00:17:01;19.10;95.60
47590;DHT22;33316;52.298;9.056;2023-07-28T00:19:28;19.10;95.50
47590;DHT22;33316;52.298;9.056;2023-07-28T00:21:55;19.20;95.60
47590;DHT22;33316;52.298;9.056;2023-07-28T00:24:22;19.20;95.60
47590;DHT22;33316;52.298;9.056;2023-07-28T00:26:49;19.10;95.50
47590;DHT22;33316;52.298;9.056;2023-07-28T00:29:16;19.20;95.50
47590;DHT22;33316;52.298;9.056;2023-07-28T00:31:43;19.10;95.50
47590;DHT22;33316;52.298;9.056;2023-07-28T00:34:12;19.10;95.40
47590;DHT22;33316;52.298;9.056;2023-07-28T00:36:39;19.10;95.50
47590;DHT22;33316;52.298;9.056;2023-07-28T00:39:07;19.10;95.40
47590;DHT22;33316;52.298;9.056;2023-07-28T00:41:34;19.10;95.40
47590;DHT22;33316;52.298;9.056;2023-07-28T00:44:00;19.10;95.50
47590;DHT22;33316;52.298;9.056;2023-07-28T00:46:28;19.10;95.50
47590;DHT22;33316;52.298;9.056;2023-07-28T00:48:55;19.10;95.40
47590;DHT22;33316;52.298;9.056;2023-07-28T00:51:23;19.10;95.40
47590;DHT22;33316;52.298;9.056;2023-07-28T00:53:51;19.10;95.50
47590;DHT22;33316;52.298;9.056;2023-07-28T00:56:19;19.10;95.50
47590;DHT22;33316;52.298;9.056;2023-07-28T00:58:48;19.10;95.50
47590;DHT22;33316;52.298;9.056;2023-07-28T01:01:15;19.10;95.50
47590;DHT22;33316;52.298;9.056;2023-07-28T01:03:42;19.10;95.50
47590;DHT22;33316;52.298;9.056;2023-07-28T01:06:18;19.10;95.50
47590;DHT22;33316;52.298;9.056;2023-07-28T01:08:52;19.10;95.50
47590;DHT22;33316;52.298;9.056;2023-07-28T01:11:21;19.10;95.80
47590;DHT22;33316;52.298;9.056;2023-07-28T01:13:48;19.10;95.50
47590;DHT22;33316;52.298;9.056;2023-07-28T01:16:16;19.10;95.50
47590;DHT22;33316;52.298;9.056;2023-07-28T01:18:43;19.10;95.50
47590;DHT22;33316;52.298;9.056;2023-07-28T01:21:19;19.10;95.40
47590;DHT22;33316;52.298;9.056;2023-07-28T01:23:54;19.10;95.50
47590;DHT22;33316;52.298;9.056;2023-07-28T01:26:31;19.10;95.50
47590;DHT22;33316;52.298;9.056;2023-07-28T01:28:59;19.10;95.50
47590;DHT22;33316;52.298;9.056;2023-07-28T01:31:26;19.10;95.50
47590;DHT22;33316;52.298;9.056;2023-07-28T01:33:53;19.10;95.50
47590;DHT22;33316;52.298;9.056;2023-07-28T01:36:20;19.10;95.50
47590;DHT22;33316;52.298;9.056;2023-07-28T01:38:47;19.10;95.50
47590;DHT22;33316;52.298;9.056;2023-07-28T01:41:14;19.10;95.80
47590;DHT22;33316;52.298;9.056;2023-07-28T01:43:43;19.10;95.80
47590;DHT22;33316;52.298;9.056;2023-07-28T01:46:10;19.10;95.50
47590;DHT22;33316;52.298;9.056;2023-07-28T01:48:37;19.10;95.60
47590;DHT22;33316;52.298;9.056;2023-07-28T01:51:03;19.10;95.60
47590;DHT22;33316;52.298;9.056;2023-07-28T01:53:30;19.10;95.60
47590;DHT22;33316;52.298;9.056;2023-07-28T01:55:57;19.10;95.60
47590;DHT22;33316;52.298;9.056;2023-07-28T01:58:26;19.10;95.60
47590;DHT22;33316;52.298;9.056;2023-07-28T02:00:55;19.10;95.70
47590;DHT22;33316;52.298;9.056;2023-07-28T02:03:22;19.10;95.70
47590;DHT22;33316;52.298;9.056;2023-07-28T02:05:49;19.10;95.70
47590;DHT22;33316;52.298;9.056;2023-07-28T02:08:16;19.10;95.70
47590;DHT22;33316;52.298;9.056;2023-07-28T02:10:44;19.10;95.70
47590;DHT22;33316;52.298;9.056;2023-07-28T02:13:11;19.10;95.70
47590;DHT22;33316;52.298;9.056;2023-07-28T02:15:38;19.10;95.70
47590;DHT22;33316;52.298;9.056;2023-07-28T02:18:06;19.10;95.70
47590;DHT22;33316;52.298;9.056;2023-07-28T02:20:33;19.10;95.80
47590;DHT22;33316;52.298;9.056;2023-07-28T02:23:01;19.10;95.70
47590;DHT22;33316;52.298;9.056;2023-07-28T02:25:28;19.00;95.70
47590;DHT22;33316;52.298;9.056;2023-07-28T02:27:55;19.10;95.70
47590;DHT22;33316;52.298;9.056;2023-07-28T02:30:24;19.00;95.70
47590;DHT22;33316;52.298;9.056;2023-07-28T02:32:51;19.10;95.70
47590;DHT22;33316;52.298;9.056;2023-07-28T02:35:20;19.10;95.70
47590;DHT22;33316;52.298;9.056;2023-07-28T02:37:46;19.00;95.80
47590;DHT22;33316;52.298;9.056;2023-07-28T02:40:13;19.00;95.80
47590;DHT22;33316;52.298;9.056;2023-07-28T02:42:41;19.00;95.80
47590;DHT22;33316;52.298;9.056;2023-07-28T02:45:08;19.10;95.80
47590;DHT22;33316;52.298;9.056;2023-07-28T02:47:35;19.00;95.70
47590;DHT22;33316;52.298;9.056;2023-07-28T02:50:03;19.00;95.80
47590;DHT22;33316;52.298;9.056;2023-07-28T02:52:31;19.00;95.80
47590;DHT22;33316;52.298;9.056;2023-07-28T02:54:58;19.00;95.80
47590;DHT22;33316;52.298;9.056;2023-07-28T02:57:26;19.00;95.80
47590;DHT22;33316;52.298;9.056;2023-07-28T02:59:53;19.00;95.80
47590;DHT22;33316;52.298;9.056;2023-07-28T03:02:21;19.00;95.80
47590;DHT22;33316;52.298;9.056;2023-07-28T03:04:49;19.10;95.80
47590;DHT22;33316;52.298;9.056;2023-07-28T03:07:16;19.10;95.80
47590;DHT22;33316;52.298;9.056;2023-07-28T03:09:49;19.00;95.80
47590;DHT22;33316;52.298;9.056;2023-07-28T03:12:16;19.10;95.90
47590;DHT22;33316;52.298;9.056;2023-07-28T03:14:43;19.00;95.80
47590;DHT22;33316;52.298;9.056;2023-07-28T03:17:10;19.10;95.90
47590;DHT22;33316;52.298;9.056;2023-07-28T03:19:37;19.00;95.90
47590;DHT22;33316;52.298;9.056;2023-07-28T03:22:05;19.10;95.90
47590;DHT22;33316;52.298;9.056;2023-07-28T03:24:32;19.10;95.90
47590;DHT22;33316;52.298;9.056;2023-07-28T03:27:00;19.10;95.90
47590;DHT22;33316;52.298;9.056;2023-07-28T03:29:27;19.10;95.90
47590;DHT22;33316;52.298;9.056;2023-07-28T03:31:54;19.00;95.80
47590;DHT22;33316;52.298;9.056;2023-07-28T03:34:21;19.10;95.80
47590;DHT22;33316;52.298;9.056;2023-07-28T03:36:49;19.10;95.80
47590;DHT22;33316;52.298;9.056;2023-07-28T03:39:16;19.10;95.90
47590;DHT22;33316;52.298;9.056;2023-07-28T03:41:46;19.10;95.90
47590;DHT22;33316;52.298;9.056;2023-07-28T03:44:15;19.10;95.80
47590;DHT22;33316;52.298;9.056;2023-07-28T03:46:42;19.10;95.90
47590;DHT22;33316;52.298;9.056;2023-07-28T03:49:09;19.10;95.90
47590;DHT22;33316;52.298;9.056;2023-07-28T03:51:36;19.10;95.90
47590;DHT22;33316;52.298;9.056;2023-07-28T03:54:03;19.10;95.90
47590;DHT22;33316;52.298;9.056;2023-07-28T03:56:30;19.10;95.90
47590;DHT22;33316;52.298;9.056;2023-07-28T03:58:57;19.10;95.90
47590;DHT22;33316;52.298;9.056;2023-07-28T04:01:25;19.10;95.90
47590;DHT22;33316;52.298;9.056;2023-07-28T04:03:52;19.10;95.90
47590;DHT22;33316;52.298;9.056;2023-07-28T04:06:19;19.10;95.90
47590;DHT22;33316;52.298;9.056;2023-07-28T04:09:05;19.10;96.00
47590;DHT22;33316;52.298;9.056;2023-07-28T04:11:32;19.10;96.00
47590;DHT22;33316;52.298;9.056;2023-07-28T04:13:59;19.10;96.00
47590;DHT22;33316;52.298;9.056;2023-07-28T04:16:28;19.10;96.00
47590;DHT22;33316;52.298;9.056;2023-07-28T04:18:54;19.00;96.00
47590;DHT22;33316;52.298;9.056;2023-07-28T04:21:22;19.00;96.00
47590;DHT22;33316;52.298;9.056;2023-07-28T04:23:49;19.00;96.00
47590;DHT22;33316;52.298;9.056;2023-07-28T04:26:16;19.00;96.00
47590;DHT22;33316;52.298;9.056;2023-07-28T04:28:44;19.10;96.00
47590;DHT22;33316;52.298;9.056;2023-07-28T04:31:11;19.10;96.10
47590;DHT22;33316;52.298;9.056;2023-07-28T04:33:54;19.00;96.40
47590;DHT22;33316;52.298;9.056;2023-07-28T04:36:23;19.10;96.10
47590;DHT22;33316;52.298;9.056;2023-07-28T04:38:50;19.00;96.10
47590;DHT22;33316;52.298;9.056;2023-07-28T04:41:17;19.00;96.10
47590;DHT22;33316;52.298;9.056;2023-07-28T04:43:52;19.10;96.20
47590;DHT22;33316;52.298;9.056;2023-07-28T04:46:20;19.10;96.20
47590;DHT22;33316;52.298;9.056;2023-07-28T04:48:54;19.10;96.20
47590;DHT22;33316;52.298;9.056;2023-07-28T04:51:40;19.10;96.20
47590;DHT22;33316;52.298;9.056;2023-07-28T04:54:29;19.10;96.20
47590;DHT22;33316;52.298;9.056;2023-07-28T04:56:57;19.10;96.10
47590;DHT22;33316;52.298;9.056;2023-07-28T04:59:30;19.10;96.10
47590;DHT22;33316;52.298;9.056;2023-07-28T05:01:57;19.10;96.10
47590;DHT22;33316;52.298;9.056;2023-07-28T05:04:25;19.10;96.20
47590;DHT22;33316;52.298;9.056;2023-07-28T05:06:52;19.10;96.20
47590;DHT22;33316;52.298;9.056;2023-07-28T05:09:19;19.10;96.20
47590;DHT22;33316;52.298;9.056;2023-07-28T05:11:46;19.10;96.20
47590;DHT22;33316;52.298;9.056;2023-07-28T05:14:13;19.10;96.30
47590;DHT22;33316;52.298;9.056;2023-07-28T05:16:41;19.10;96.30
47590;DHT22;33316;52.298;9.056;2023-07-28T05:19:11;19.10;96.40
47590;DHT22;33316;52.298;9.056;2023-07-28T05:22:03;19.10;96.40
47590;DHT22;33316;52.298;9.056;2023-07-28T05:24:45;19.10;96.40
47590;DHT22;33316;52.298;9.056;2023-07-28T05:27:13;19.10;96.30
47590;DHT22;33316;52.298;9.056;2023-07-28T05:29:42;19.20;96.40
47590;DHT22;33316;52.298;9.056;2023-07-28T05:32:10;19.10;96.30
47590;DHT22;33316;52.298;9.056;2023-07-28T05:34:55;19.10;96.30
47590;DHT22;33316;52.298;9.056;2023-07-28T05:37:24;19.20;96.30
47590;DHT22;33316;52.298;9.056;2023-07-28T05:39:51;19.20;96.40
47590;DHT22;33316;52.298;9.056;2023-07-28T05:42:19;19.10;96.40
47590;DHT22;33316;52.298;9.056;2023-07-28T05:44:47;19.20;96.50
47590;DHT22;33316;52.298;9.056;2023-07-28T05:47:14;19.20;96.50
47590;DHT22;33316;52.298;9.056;2023-07-28T05:49:41;19.10;96.50
47590;DHT22;33316;52.298;9.056;2023-07-28T05:52:08;19.20;96.50
47590;DHT22;33316;52.298;9.056;2023-07-28T05:54:37;19.20;96.60
47590;DHT22;33316;52.298;9.056;2023-07-28T05:57:04;19.20;96.60
47590;DHT22;33316;52.298;9.056;2023-07-28T05:59:31;19.20;96.60
47590;DHT22;33316;52.298;9.056;2023-07-28T06:01:58;19.20;96.60
47590;DHT22;33316;52.298;9.056;2023-07-28T06:04:43;19.20;96.60
47590;DHT22;33316;52.298;9.056;2023-07-28T06:07:10;19.20;96.60
47590;DHT22;33316;52.298;9.056;2023-07-28T06:09:39;19.20;96.50
47590;DHT22;33316;52.298;9.056;2023-07-28T06:12:06;19.20;96.50
47590;DHT22;33316;52.298;9.056;2023-07-28T06:14:33;19.20;96.50
47590;DHT22;33316;52.298;9.056;2023-07-28T06:17:03;19.30;96.50
47590;DHT22;33316;52.298;9.056;2023-07-28T06:19:32;19.20;96.50
47590;DHT22;33316;52.298;9.056;2023-07-28T06:21:59;19.30;96.50
47590;DHT22;33316;52.298;9.056;2023-07-28T06:24:28;19.30;96.50
47590;DHT22;33316;52.298;9.056;2023-07-28T06:26:59;19.30;96.40
47590;DHT22;33316;52.298;9.056;2023-07-28T06:29:33;19.30;96.40
47590;DHT22;33316;52.298;9.056;2023-07-28T06:32:00;19.30;96.40
47590;DHT22;33316;52.298;9.056;2023-07-28T06:34:28;19.30;96.50
47590;DHT22;33316;52.298;9.056;2023-07-28T06:36:55;19.40;96.50
47590;DHT22;33316;52.298;9.056;2023-07-28T06:39:22;19.40;96.50
47590;DHT22;33316;52.298;9.056;2023-07-28T06:41:50;19.40;96.50
47590;DHT22;33316;52.298;9.056;2023-07-28T06:44:19;19.40;96.50
47590;DHT22;33316;52.298;9.056;2023-07-28T06:46:46;19.50;96.50
47590;DHT22;33316;52.298;9.056;2023-07-28T06:49:14;19.50;96.40
47590;DHT22;33316;52.298;9.056;2023-07-28T06:51:41;19.50;96.40
47590;DHT22;33316;52.298;9.056;2023-07-28T06:54:10;19.60;96.40
47590;DHT22;33316;52.298;9.056;2023-07-28T06:56:38;19.60;96.30
47590;DHT22;33316;52.298;9.056;2023-07-28T06:59:06;19.60;96.20
47590;DHT22;33316;52.298;9.056;2023-07-28T07:01:35;19.70;96.20
47590;DHT22;33316;52.298;9.056;2023-07-28T07:04:02;19.70;96.10
47590;DHT22;33316;52.298;9.056;2023-07-28T07:06:30;19.80;96.00
47590;DHT22;33316;52.298;9.056;2023-07-28T07:08:57;19.90;96.00
47590;DHT22;33316;52.298;9.056;2023-07-28T07:11:24;20.00;95.90
47590;DHT22;33316;52.298;9.056;2023-07-28T07:13:51;20.10;95.80
47590;DHT22;33316;52.298;9.056;2023-07-28T07:16:18;20.10;95.70
47590;DHT22;33316;52.298;9.056;2023-07-28T07:18:46;20.20;95.70
47590;DHT22;33316;52.298;9.056;2023-07-28T07:21:13;20.20;95.60
47590;DHT22;33316;52.298;9.056;2023-07-28T07:23:40;20.30;95.60
47590;DHT22;33316;52.298;9.056;2023-07-28T07:26:24;20.40;95.60
47590;DHT22;33316;52.298;9.056;2023-07-28T07:28:51;20.50;95.40
47590;DHT22;33316;52.298;9.056;2023-07-28T07:31:18;20.60;95.30
47590;DHT22;33316;52.298;9.056;2023-07-28T07:33:47;20.70;95.20
47590;DHT22;33316;52.298;9.056;2023-07-28T07:36:14;20.80;95.00
47590;DHT22;33316;52.298;9.056;2023-07-28T07:38:41;20.80;94.90
47590;DHT22;33316;52.298;9.056;2023-07-28T07:41:09;20.80;94.70
47590;DHT22;33316;52.298;9.056;2023-07-28T07:43:36;20.80;94.80
47590;DHT22;33316;52.298;9.056;2023-07-28T07:46:03;20.90;94.40
47590;DHT22;33316;52.298;9.056;2023-07-28T07:48:30;20.90;94.40
47590;DHT22;33316;52.298;9.056;2023-07-28T07:50:58;21.00;94.40
47590;DHT22;33316;52.298;9.056;2023-07-28T07:53:25;21.10;94.30
47590;DHT22;33316;52.298;9.056;2023-07-28T07:55:52;21.20;94.20
47590;DHT22;33316;52.298;9.056;2023-07-28T07:58:19;21.20;94.00
47590;DHT22;33316;52.298;9.056;2023-07-28T08:00:46;21.30;93.80
47590;DHT22;33316;52.298;9.056;2023-07-28T08:03:13;21.30;93.60
47590;DHT22;33316;52.298;9.056;2023-07-28T08:05:40;21.20;93.40
47590;DHT22;33316;52.298;9.056;2023-07-28T08:08:09;21.20;93.30
47590;DHT22;33316;52.298;9.056;2023-07-28T08:10:36;21.30;93.40
47590;DHT22;33316;52.298;9.056;2023-07-28T08:13:05;21.40;93.40
47590;DHT22;33316;52.298;9.056;2023-07-28T08:15:32;21.50;93.30
47590;DHT22;33316;52.298;9.056;2023-07-28T08:17:59;21.60;93.00
47590;DHT22;33316;52.298;9.056;2023-07-28T08:20:26;21.60;92.80
47590;DHT22;33316;52.298;9.056;2023-07-28T08:22:54;21.60;92.70
47590;DHT22;33316;52.298;9.056;2023-07-28T08:25:22;21.70;92.80
47590;DHT22;33316;52.298;9.056;2023-07-28T08:27:49;21.80;92.80
47590;DHT22;33316;52.298;9.056;2023-07-28T08:30:16;21.90;92.70
47590;DHT22;33316;52.298;9.056;2023-07-28T08:32:43;22.00;92.60
47590;DHT22;33316;52.298;9.056;2023-07-28T08:35:10;22.00;92.50
47590;DHT22;33316;52.298;9.056;2023-07-28T08:37:37;22.10;92.30
47590;DHT22;33316;52.298;9.056;2023-07-28T08:40:05;22.10;92.20
47590;DHT22;33316;52.298;9.056;2023-07-28T08:42:37;22.10;92.00
47590;DHT22;33316;52.298;9.056;2023-07-28T08:45:05;22.10;91.90
47590;DHT22;33316;52.298;9.056;2023-07-28T08:47:38;22.10;91.90
47590;DHT22;33316;52.298;9.056;2023-07-28T08:50:06;22.10;91.90
47590;DHT22;33316;52.298;9.056;2023-07-28T08:52:33;22.10;91.80
47590;DHT22;33316;52.298;9.056;2023-07-28T08:55:00;22.20;91.80
47590;DHT22;33316;52.298;9.056;2023-07-28T08:57:28;22.30;91.60
47590;DHT22;33316;52.298;9.056;2023-07-28T08:59:56;22.40;91.40
47590;DHT22;33316;52.298;9.056;2023-07-28T09:02:23;22.50;91.20
47590;DHT22;33316;52.298;9.056;2023-07-28T09:04:51;22.50;91.10
47590;DHT22;33316;52.298;9.056;2023-07-28T09:07:17;22.60;90.90
47590;DHT22;33316;52.298;9.056;2023-07-28T09:09:45;22.60;90.80
47590;DHT22;33316;52.298;9.056;2023-07-28T09:12:12;22.70;90.70
47590;DHT22;33316;52.298;9.056;2023-07-28T09:14:39;22.70;90.60
47590;DHT22;33316;52.298;9.056;2023-07-28T09:17:09;22.70;90.40
47590;DHT22;33316;52.298;9.056;2023-07-28T09:19:50;22.70;90.10
47590;DHT22;33316;52.298;9.056;2023-07-28T09:22:18;22.80;90.10
47590;DHT22;33316;52.298;9.056;2023-07-28T09:24:46;22.80;90.10
47590;DHT22;33316;52.298;9.056;2023-07-28T09:27:23;22.80;90.00
47590;DHT22;33316;52.298;9.056;2023-07-28T09:29:51;22.80;90.00
47590;DHT22;33316;52.298;9.056;2023-07-28T09:32:31;22.80;90.00
47590;DHT22;33316;52.298;9.056;2023-07-28T09:35:09;22.90;89.80
47590;DHT22;33316;52.298;9.056;2023-07-28T09:37:40;22.90;89.20
47590;DHT22;33316;52.298;9.056;2023-07-28T09:40:09;22.90;89.20
47590;DHT22;33316;52.298;9.056;2023-07-28T09:42:37;22.90;89.20
47590;DHT22;33316;52.298;9.056;2023-07-28T09:45:06;23.00;89.30
47590;DHT22;33316;52.298;9.056;2023-07-28T09:47:35;23.00;89.10
47590;DHT22;33316;52.298;9.056;2023-07-28T09:50:07;23.00;88.50
47590;DHT22;33316;52.298;9.056;2023-07-28T09:52:37;23.00;89.20
47590;DHT22;33316;52.298;9.056;2023-07-28T09:55:06;23.00;88.40
47590;DHT22;33316;52.298;9.056;2023-07-28T09:57:37;23.10;88.40
47590;DHT22;33316;52.298;9.056;2023-07-28T10:00:05;23.10;88.30
47590;DHT22;33316;52.298;9.056;2023-07-28T10:02:39;23.10;88.10
47590;DHT22;33316;52.298;9.056;2023-07-28T10:05:07;23.10;88.00
47590;DHT22;33316;52.298;9.056;2023-07-28T10:07:37;23.10;87.80
47590;DHT22;33316;52.298;9.056;2023-07-28T10:10:06;23.10;87.50
47590;DHT22;33316;52.298;9.056;2023-07-28T10:12:40;23.20;87.40
47590;DHT22;33316;52.298;9.056;2023-07-28T10:15:12;23.20;87.20
47590;DHT22;33316;52.298;9.056;2023-07-28T10:17:45;23.20;87.20
47590;DHT22;33316;52.298;9.056;2023-07-28T10:20:33;23.30;87.40
47590;DHT22;33316;52.298;9.056;2023-07-28T10:23:06;23.40;87.40
47590;DHT22;33316;52.298;9.056;2023-07-28T10:25:34;23.50;87.10
47590;DHT22;33316;52.298;9.056;2023-07-28T10:28:02;23.60;87.40
47590;DHT22;33316;52.298;9.056;2023-07-28T10:30:37;23.60;86.40
47590;DHT22;33316;52.298;9.056;2023-07-28T10:33:06;23.70;86.20
47590;DHT22;33316;52.298;9.056;2023-07-28T10:35:52;23.70;85.90
47590;DHT22;33316;52.298;9.056;2023-07-28T10:38:33;23.80;85.20
47590;DHT22;33316;52.298;9.056;2023-07-28T10:41:15;23.80;85.00
47590;DHT22;33316;52.298;9.056;2023-07-28T10:43:43;23.80;85.20
47590;DHT22;33316;52.298;9.056;2023-07-28T10:46:11;23.90;85.10
47590;DHT22;33316;52.298;9.056;2023-07-28T10:48:43;24.00;85.00
47590;DHT22;33316;52.298;9.056;2023-07-28T10:51:11;23.90;84.60
47590;DHT22;33316;52.298;9.056;2023-07-28T10:53:38;23.90;84.20
47590;DHT22;33316;52.298;9.056;2023-07-28T10:56:05;24.00;84.00
47590;DHT22;33316;52.298;9.056;2023-07-28T10:58:34;24.00;83.90
47590;DHT22;33316;52.298;9.056;2023-07-28T11:01:02;24.00;83.40
47590;DHT22;33316;52.298;9.056;2023-07-28T11:03:29;24.00;83.10
47590;DHT22;33316;52.298;9.056;2023-07-28T11:05:57;24.00;83.20
47590;DHT22;33316;52.298;9.056;2023-07-28T11:08:25;24.00;83.30
47590;DHT22;33316;52.298;9.056;2023-07-28T11:10:52;24.10;83.40
47590;DHT22;33316;52.298;9.056;2023-07-28T11:13:19;24.20;83.00
47590;DHT22;33316;52.298;9.056;2023-07-28T11:15:46;24.20;82.80
47590;DHT22;33316;52.298;9.056;2023-07-28T11:18:15;24.20;82.60
47590;DHT22;33316;52.298;9.056;2023-07-28T11:20:42;24.30;83.20
47590;DHT22;33316;52.298;9.056;2023-07-28T11:23:14;24.40;83.00
47590;DHT22;33316;52.298;9.056;2023-07-28T11:25:41;24.40;82.60
47590;DHT22;33316;52.298;9.056;2023-07-28T11:28:08;24.50;82.10
47590;DHT22;33316;52.298;9.056;2023-07-28T11:30:36;24.50;81.70
47590;DHT22;33316;52.298;9.056;2023-07-28T11:33:04;24.50;81.90
47590;DHT22;33316;52.298;9.056;2023-07-28T11:38:21;24.60;81.60
47590;DHT22;33316;52.298;9.056;2023-07-28T11:40:48;24.70;81.60
47590;DHT22;33316;52.298;9.056;2023-07-28T11:43:16;24.70;81.10
47590;DHT22;33316;52.298;9.056;2023-07-28T11:45:44;24.70;80.80
47590;DHT22;33316;52.298;9.056;2023-07-28T11:48:11;24.80;80.90
47590;DHT22;33316;52.298;9.056;2023-07-28T11:50:41;24.80;80.50
47590;DHT22;33316;52.298;9.056;2023-07-28T11:53:10;24.90;80.60
47590;DHT22;33316;52.298;9.056;2023-07-28T11:55:39;24.90;80.40
47590;DHT22;33316;52.298;9.056;2023-07-28T11:58:06;24.90;80.10
47590;DHT22;33316;52.298;9.056;2023-07-28T12:00:35;25.00;80.00
47590;DHT22;33316;52.298;9.056;2023-07-28T12:03:04;25.00;80.00
47590;DHT22;33316;52.298;9.056;2023-07-28T12:05:31;25.10;80.10
47590;DHT22;33316;52.298;9.056;2023-07-28T12:08:00;25.10;79.90
47590;DHT22;33316;52.298;9.056;2023-07-28T12:10:28;25.10;79.70
47590;DHT22;33316;52.298;9.056;2023-07-28T12:13:03;25.20;79.60
47590;DHT22;33316;52.298;9.056;2023-07-28T12:15:31;25.20;79.40
47590;DHT22;33316;52.298;9.056;2023-07-28T12:18:07;25.20;79.50
47590;DHT22;33316;52.298;9.056;2023-07-28T12:20:39;25.20;79.20
47590;DHT22;33316;52.298;9.056;2023-07-28T12:23:08;25.30;79.40
47590;DHT22;33316;52.298;9.056;2023-07-28T12:25:36;25.30;79.40
47590;DHT22;33316;52.298;9.056;2023-07-28T12:28:05;25.30;79.40
47590;DHT22;33316;52.298;9.056;2023-07-28T12:30:32;25.40;78.90
47590;DHT22;33316;52.298;9.056;2023-07-28T12:32:59;25.30;78.40
47590;DHT22;33316;52.298;9.056;2023-07-28T12:35:26;25.40;78.00
47590;DHT22;33316;52.298;9.056;2023-07-28T12:37:57;25.30;77.70
47590;DHT22;33316;52.298;9.056;2023-07-28T12:40:26;25.40;77.80
47590;DHT22;33316;52.298;9.056;2023-07-28T12:42:54;25.40;77.60
47590;DHT22;33316;52.298;9.056;2023-07-28T12:45:23;25.40;77.70
47590;DHT22;33316;52.298;9.056;2023-07-28T12:47:51;25.40;77.70
47590;DHT22;33316;52.298;9.056;2023-07-28T12:50:18;25.50;77.90
47590;DHT22;33316;52.298;9.056;2023-07-28T12:52:46;25.50;77.90
47590;DHT22;33316;52.298;9.056;2023-07-28T12:55:13;25.50;77.90
47590;DHT22;33316;52.298;9.056;2023-07-28T12:57:40;25.50;77.40
47590;DHT22;33316;52.298;9.056;2023-07-28T13:00:08;25.60;77.20
47590;DHT22;33316;52.298;9.056;2023-07-28T13:02:41;25.60;77.30
47590;DHT22;33316;52.298;9.056;2023-07-28T13:05:09;25.60;77.10
47590;DHT22;33316;52.298;9.056;2023-07-28T13:07:37;25.70;76.60
47590;DHT22;33316;52.298;9.056;2023-07-28T13:10:07;25.70;76.70
47590;DHT22;33316;52.298;9.056;2023-07-28T13:12:35;25.70;76.60
47590;DHT22;33316;52.298;9.056;2023-07-28T13:15:03;25.70;77.00
47590;DHT22;33316;52.298;9.056;2023-07-28T13:17:30;25.70;76.60
47590;DHT22;33316;52.298;9.056;2023-07-28T13:19:58;25.80;76.60
47590;DHT22;33316;52.298;9.056;2023-07-28T13:22:25;25.80;76.30
47590;DHT22;33316;52.298;9.056;2023-07-28T13:24:53;25.80;76.00
47590;DHT22;33316;52.298;9.056;2023-07-28T13:27:20;25.80;75.80
47590;DHT22;33316;52.298;9.056;2023-07-28T13:29:46;25.80;75.60
47590;DHT22;33316;52.298;9.056;2023-07-28T13:32:18;25.80;75.30
47590;DHT22;33316;52.298;9.056;2023-07-28T13:34:45;25.70;75.50
47590;DHT22;33316;52.298;9.056;2023-07-28T13:37:15;25.80;75.80
47590;DHT22;33316;52.298;9.056;2023-07-28T13:39:42;25.80;75.60
47590;DHT22;33316;52.298;9.056;2023-07-28T13:42:09;25.80;75.70
47590;DHT22;33316;52.298;9.056;2023-07-28T13:44:38;25.80;75.40
47590;DHT22;33316;52.298;9.056;2023-07-28T13:47:05;25.80;75.80
47590;DHT22;33316;52.298;9.056;2023-07-28T13:49:32;25.80;75.40
47590;DHT22;33316;52.298;9.056;2023-07-28T13:52:01;25.90;75.30
47590;DHT22;33316;52.298;9.056;2023-07-28T13:54:29;25.90;74.60
47590;DHT22;33316;52.298;9.056;2023-07-28T13:56:56;25.90;74.00
47590;DHT22;33316;52.298;9.056;2023-07-28T13:59:28;25.90;74.10
47590;DHT22;33316;52.298;9.056;2023-07-28T14:01:55;25.90;73.90
47590;DHT22;33316;52.298;9.056;2023-07-28T14:04:23;25.90;73.80
47590;DHT22;33316;52.298;9.056;2023-07-28T14:06:50;26.00;73.60
47590;DHT22;33316;52.298;9.056;2023-07-28T14:09:17;26.00;73.80
47590;DHT22;33316;52.298;9.056;2023-07-28T14:11:46;26.10;73.90
47590;DHT22;33316;52.298;9.056;2023-07-28T14:14:12;26.10;73.50
47590;DHT22;33316;52.298;9.056;2023-07-28T14:16:40;26.10;73.00
47590;DHT22;33316;52.298;9.056;2023-07-28T14:19:08;26.10;72.60
47590;DHT22;33316;52.298;9.056;2023-07-28T14:21:35;26.10;72.40
47590;DHT22;33316;52.298;9.056;2023-07-28T14:24:04;26.20;72.90
47590;DHT22;33316;52.298;9.056;2023-07-28T14:26:30;26.20;72.80
47590;DHT22;33316;52.298;9.056;2023-07-28T14:28:59;26.20;72.90
47590;DHT22;33316;52.298;9.056;2023-07-28T14:31:26;26.20;72.50
47590;DHT22;33316;52.298;9.056;2023-07-28T14:33:52;26.20;72.40
47590;DHT22;33316;52.298;9.056;2023-07-28T14:36:19;26.20;72.50
47590;DHT22;33316;52.298;9.056;2023-07-28T14:38:47;26.20;72.90
47590;DHT22;33316;52.298;9.056;2023-07-28T14:41:13;26.30;73.20
47590;DHT22;33316;52.298;9.056;2023-07-28T14:47:05;26.30;72.00
47590;DHT22;33316;52.298;9.056;2023-07-28T14:49:32;26.30;72.50
47590;DHT22;33316;52.298;9.056;2023-07-28T14:51:59;26.40;72.60
47590;DHT22;33316;52.298;9.056;2023-07-28T14:54:26;26.40;72.40
47590;DHT22;33316;52.298;9.056;2023-07-28T14:56:53;26.40;72.10
47590;DHT22;33316;52.298;9.056;2023-07-28T14:59:20;26.40;72.10
47590;DHT22;33316;52.298;9.056;2023-07-28T15:01:47;26.40;72.00
47590;DHT22;33316;52.298;9.056;2023-07-28T15:04:15;26.40;71.70
47590;DHT22;33316;52.298;9.056;2023-07-28T15:06:45;26.40;71.80
47590;DHT22;33316;52.298;9.056;2023-07-28T15:09:12;26.40;71.60
47590;DHT22;33316;52.298;9.056;2023-07-28T15:11:39;26.40;71.30
47590;DHT22;33316;52.298;9.056;2023-07-28T15:14:06;26.40;71.10
47590;DHT22;33316;52.298;9.056;2023-07-28T15:16:32;26.40;71.60
47590;DHT22;33316;52.298;9.056;2023-07-28T15:19:00;26.40;70.90
47590;DHT22;33316;52.298;9.056;2023-07-28T15:21:28;26.40;71.00
47590;DHT22;33316;52.298;9.056;2023-07-28T15:23:55;26.40;71.00
47590;DHT22;33316;52.298;9.056;2023-07-28T15:26:22;26.50;71.00
47590;DHT22;33316;52.298;9.056;2023-07-28T15:28:49;26.50;70.60
47590;DHT22;33316;52.298;9.056;2023-07-28T15:31:16;26.50;70.50
47590;DHT22;33316;52.298;9.056;2023-07-28T15:33:43;26.50;69.80
47590;DHT22;33316;52.298;9.056;2023-07-28T15:36:10;26.50;69.70
47590;DHT22;33316;52.298;9.056;2023-07-28T15:38:38;26.50;69.50
47590;DHT22;33316;52.298;9.056;2023-07-28T15:41:05;26.50;69.60
47590;DHT22;33316;52.298;9.056;2023-07-28T15:43:32;26.50;69.70
47590;DHT22;33316;52.298;9.056;2023-07-28T15:45:59;26.50;70.00